sensor_id;sensor_type;location;lat;lon;timestamp;P1;durP1;ratioP1;P2;durP2;ratioP2
60038;SDS011;45916;52.734;6.544;2022-07-09T00:01:46;15.13;;;10.23;;
60038;SDS011;45916;52.734;6.544;2022-07-09T00:04:12;16.13;;;10.70;;
60038;SDS011;45916;52.734;6.544;2022-07-09T00:06:38;18.90;;;11.52;;
60038;SDS011;45916;52.734;6.544;2022-07-09T00:09:04;18.38;;;11.32;;
60038;SDS011;45916;52.734;6.544;2022-07-09T00:11:30;16.67;;;11.10;;
60038;SDS011;45916;52.734;6.544;2022-07-09T00:13:55;15.73;;;10.57;;
60038;SDS011;45916;52.734;6.544;2022-07-09T00:16:21;17.13;;;10.48;;
60038;SDS011;45916;52.734;6.544;2022-07-09T00:18:47;15.18;;;10.27;;
60038;SDS011;45916;52.734;6.544;2022-07-09T00:21:12;18.95;;;11.13;;
60038;SDS011;45916;52.734;6.544;2022-07-09T00:23:38;19.88;;;10.63;;
60038;SDS011;45916;52.734;6.544;2022-07-09T00:26:04;15.38;;;10.55;;
60038;SDS011;45916;52.734;6.544;2022-07-09T00:28:29;15.50;;;11.10;;
60038;SDS011;45916;52.734;6.544;2022-07-09T00:30:55;15.52;;;11.32;;
60038;SDS011;45916;52.734;6.544;2022-07-09T00:33:21;16.92;;;11.38;;
60038;SDS011;45916;52.734;6.544;2022-07-09T00:35:46;15.93;;;11.15;;
60038;SDS011;45916;52.734;6.544;2022-07-09T00:38:12;14.18;;;10.70;;
60038;SDS011;45916;52.734;6.544;2022-07-09T00:40:38;15.32;;;11.60;;
60038;SDS011;45916;52.734;6.544;2022-07-09T00:43:03;20.35;;;11.90;;
60038;SDS011;45916;52.734;6.544;2022-07-09T00:45:39;16.98;;;12.35;;
60038;SDS011;45916;52.734;6.544;2022-07-09T00:48:05;13.93;;;10.90;;
60038;SDS011;45916;52.734;6.544;2022-07-09T00:50:30;17.23;;;12.40;;
60038;SDS011;45916;52.734;6.544;2022-07-09T00:52:56;19.65;;;11.70;;
60038;SDS011;45916;52.734;6.544;2022-07-09T00:55:22;19.13;;;12.82;;
60038;SDS011;45916;52.734;6.544;2022-07-09T00:57:48;15.57;;;12.50;;
60038;SDS011;45916;52.734;6.544;2022-07-09T01:00:14;20.90;;;13.95;;
60038;SDS011;45916;52.734;6.544;2022-07-09T01:02:40;19.13;;;14.13;;
60038;SDS011;45916;52.734;6.544;2022-07-09T01:05:06;19.98;;;13.27;;
60038;SDS011;45916;52.734;6.544;2022-07-09T01:07:32;20.13;;;13.38;;
60038;SDS011;45916;52.734;6.544;2022-07-09T01:09:58;16.88;;;12.52;;
60038;SDS011;45916;52.734;6.544;2022-07-09T01:12:24;19.02;;;13.48;;
60038;SDS011;45916;52.734;6.544;2022-07-09T01:14:50;16.98;;;12.88;;
60038;SDS011;45916;52.734;6.544;2022-07-09T01:17:15;21.27;;;14.00;;
60038;SDS011;45916;52.734;6.544;2022-07-09T01:19:41;24.85;;;15.35;;
60038;SDS011;45916;52.734;6.544;2022-07-09T01:22:07;20.52;;;14.38;;
60038;SDS011;45916;52.734;6.544;2022-07-09T01:24:34;19.38;;;15.40;;
60038;SDS011;45916;52.734;6.544;2022-07-09T01:27:00;20.35;;;15.95;;
60038;SDS011;45916;52.734;6.544;2022-07-09T01:29:25;25.17;;;15.80;;
60038;SDS011;45916;52.734;6.544;2022-07-09T01:31:51;28.33;;;14.77;;
60038;SDS011;45916;52.734;6.544;2022-07-09T01:34:17;23.20;;;14.55;;
60038;SDS011;45916;52.734;6.544;2022-07-09T01:36:43;29.40;;;14.52;;
60038;SDS011;45916;52.734;6.544;2022-07-09T01:39:09;28.70;;;15.40;;
60038;SDS011;45916;52.734;6.544;2022-07-09T01:41:34;29.83;;;16.52;;
60038;SDS011;45916;52.734;6.544;2022-07-09T01:44:00;28.85;;;16.33;;
60038;SDS011;45916;52.734;6.544;2022-07-09T01:46:26;25.67;;;13.45;;
60038;SDS011;45916;52.734;6.544;2022-07-09T01:48:52;29.15;;;15.20;;
60038;SDS011;45916;52.734;6.544;2022-07-09T01:51:17;22.38;;;14.38;;
60038;SDS011;45916;52.734;6.544;2022-07-09T01:53:43;20.27;;;14.25;;
60038;SDS011;45916;52.734;6.544;2022-07-09T01:56:11;21.08;;;14.68;;
60038;SDS011;45916;52.734;6.544;2022-07-09T01:58:37;22.58;;;15.38;;
60038;SDS011;45916;52.734;6.544;2022-07-09T02:01:03;19.15;;;14.15;;
60038;SDS011;45916;52.734;6.544;2022-07-09T02:03:29;20.27;;;14.07;;
60038;SDS011;45916;52.734;6.544;2022-07-09T02:05:55;18.30;;;14.65;;
60038;SDS011;45916;52.734;6.544;2022-07-09T02:08:21;21.75;;;15.77;;
60038;SDS011;45916;52.734;6.544;2022-07-09T02:10:48;20.13;;;14.75;;
60038;SDS011;45916;52.734;6.544;2022-07-09T02:13:14;21.05;;;14.35;;
60038;SDS011;45916;52.734;6.544;2022-07-09T02:15:40;20.55;;;14.57;;
60038;SDS011;45916;52.734;6.544;2022-07-09T02:18:05;21.77;;;14.23;;
60038;SDS011;45916;52.734;6.544;2022-07-09T02:20:31;17.23;;;14.10;;
60038;SDS011;45916;52.734;6.544;2022-07-09T02:22:57;20.63;;;14.23;;
60038;SDS011;45916;52.734;6.544;2022-07-09T02:25:23;20.52;;;13.52;;
60038;SDS011;45916;52.734;6.544;2022-07-09T02:27:49;20.55;;;14.45;;
60038;SDS011;45916;52.734;6.544;2022-07-09T02:30:14;20.23;;;13.73;;
60038;SDS011;45916;52.734;6.544;2022-07-09T02:32:40;21.75;;;13.45;;
60038;SDS011;45916;52.734;6.544;2022-07-09T02:35:06;20.45;;;13.23;;
60038;SDS011;45916;52.734;6.544;2022-07-09T02:37:32;20.42;;;13.65;;
60038;SDS011;45916;52.734;6.544;2022-07-09T02:39:59;18.55;;;13.07;;
60038;SDS011;45916;52.734;6.544;2022-07-09T02:42:24;19.65;;;13.30;;
60038;SDS011;45916;52.734;6.544;2022-07-09T02:44:50;18.38;;;12.88;;
60038;SDS011;45916;52.734;6.544;2022-07-09T02:47:16;17.95;;;12.07;;
60038;SDS011;45916;52.734;6.544;2022-07-09T02:49:42;18.50;;;12.75;;
60038;SDS011;45916;52.734;6.544;2022-07-09T02:52:07;17.02;;;12.40;;
60038;SDS011;45916;52.734;6.544;2022-07-09T02:54:33;16.70;;;12.75;;
60038;SDS011;45916;52.734;6.544;2022-07-09T02:56:59;18.17;;;13.20;;
60038;SDS011;45916;52.734;6.544;2022-07-09T02:59:25;18.58;;;12.68;;
60038;SDS011;45916;52.734;6.544;2022-07-09T03:01:51;18.35;;;12.02;;
60038;SDS011;45916;52.734;6.544;2022-07-09T03:04:17;17.50;;;11.63;;
60038;SDS011;45916;52.734;6.544;2022-07-09T03:06:42;20.63;;;12.30;;
60038;SDS011;45916;52.734;6.544;2022-07-09T03:09:08;17.13;;;12.52;;
60038;SDS011;45916;52.734;6.544;2022-07-09T03:11:34;19.08;;;11.68;;
60038;SDS011;45916;52.734;6.544;2022-07-09T03:14:00;17.10;;;12.35;;
60038;SDS011;45916;52.734;6.544;2022-07-09T03:16:25;19.35;;;12.15;;
60038;SDS011;45916;52.734;6.544;2022-07-09T03:18:51;15.25;;;11.10;;
60038;SDS011;45916;52.734;6.544;2022-07-09T03:21:17;15.60;;;10.35;;
60038;SDS011;45916;52.734;6.544;2022-07-09T03:23:42;17.33;;;11.88;;
60038;SDS011;45916;52.734;6.544;2022-07-09T03:26:08;15.25;;;10.45;;
60038;SDS011;45916;52.734;6.544;2022-07-09T03:28:35;15.93;;;11.70;;
60038;SDS011;45916;52.734;6.544;2022-07-09T03:31:00;20.27;;;11.00;;
60038;SDS011;45916;52.734;6.544;2022-07-09T03:33:26;19.40;;;11.82;;
60038;SDS011;45916;52.734;6.544;2022-07-09T03:35:55;20.00;;;11.55;;
60038;SDS011;45916;52.734;6.544;2022-07-09T03:38:22;15.55;;;12.13;;
60038;SDS011;45916;52.734;6.544;2022-07-09T03:40:48;14.85;;;11.25;;
60038;SDS011;45916;52.734;6.544;2022-07-09T03:43:14;17.02;;;11.05;;
60038;SDS011;45916;52.734;6.544;2022-07-09T03:45:39;13.77;;;11.32;;
60038;SDS011;45916;52.734;6.544;2022-07-09T03:48:05;16.98;;;11.80;;
60038;SDS011;45916;52.734;6.544;2022-07-09T03:50:31;17.10;;;11.68;;
60038;SDS011;45916;52.734;6.544;2022-07-09T03:52:57;14.77;;;11.43;;
60038;SDS011;45916;52.734;6.544;2022-07-09T03:55:23;15.60;;;10.98;;
60038;SDS011;45916;52.734;6.544;2022-07-09T03:57:49;18.27;;;11.35;;
60038;SDS011;45916;52.734;6.544;2022-07-09T04:00:14;18.40;;;11.82;;
60038;SDS011;45916;52.734;6.544;2022-07-09T04:02:40;15.48;;;11.38;;
60038;SDS011;45916;52.734;6.544;2022-07-09T04:05:06;20.00;;;12.18;;
60038;SDS011;45916;52.734;6.544;2022-07-09T04:07:33;20.10;;;11.38;;
60038;SDS011;45916;52.734;6.544;2022-07-09T04:09:58;17.42;;;10.90;;
60038;SDS011;45916;52.734;6.544;2022-07-09T04:12:24;16.08;;;10.80;;
60038;SDS011;45916;52.734;6.544;2022-07-09T04:14:50;14.50;;;11.02;;
60038;SDS011;45916;52.734;6.544;2022-07-09T04:17:15;19.95;;;10.95;;
60038;SDS011;45916;52.734;6.544;2022-07-09T04:19:41;16.38;;;11.40;;
60038;SDS011;45916;52.734;6.544;2022-07-09T04:22:06;15.25;;;10.25;;
60038;SDS011;45916;52.734;6.544;2022-07-09T04:24:32;17.83;;;11.98;;
60038;SDS011;45916;52.734;6.544;2022-07-09T04:26:58;15.02;;;10.68;;
60038;SDS011;45916;52.734;6.544;2022-07-09T04:29:23;18.40;;;11.82;;
60038;SDS011;45916;52.734;6.544;2022-07-09T04:31:49;18.05;;;11.57;;
60038;SDS011;45916;52.734;6.544;2022-07-09T04:34:15;14.57;;;10.35;;
60038;SDS011;45916;52.734;6.544;2022-07-09T04:36:40;16.33;;;10.38;;
60038;SDS011;45916;52.734;6.544;2022-07-09T04:39:06;14.63;;;10.32;;
60038;SDS011;45916;52.734;6.544;2022-07-09T04:41:32;15.65;;;10.20;;
60038;SDS011;45916;52.734;6.544;2022-07-09T04:43:58;26.95;;;10.75;;
60038;SDS011;45916;52.734;6.544;2022-07-09T04:46:24;18.73;;;10.98;;
60038;SDS011;45916;52.734;6.544;2022-07-09T04:48:52;16.08;;;10.10;;
60038;SDS011;45916;52.734;6.544;2022-07-09T04:51:18;20.40;;;10.77;;
60038;SDS011;45916;52.734;6.544;2022-07-09T04:53:44;17.25;;;10.38;;
60038;SDS011;45916;52.734;6.544;2022-07-09T04:56:09;16.08;;;10.25;;
60038;SDS011;45916;52.734;6.544;2022-07-09T04:58:35;15.50;;;9.65;;
60038;SDS011;45916;52.734;6.544;2022-07-09T05:01:02;15.60;;;9.68;;
60038;SDS011;45916;52.734;6.544;2022-07-09T05:03:28;15.85;;;9.63;;
60038;SDS011;45916;52.734;6.544;2022-07-09T05:05:54;13.90;;;10.15;;
60038;SDS011;45916;52.734;6.544;2022-07-09T05:08:20;18.00;;;10.05;;
60038;SDS011;45916;52.734;6.544;2022-07-09T05:10:45;13.10;;;8.35;;
60038;SDS011;45916;52.734;6.544;2022-07-09T05:13:11;15.00;;;8.23;;
60038;SDS011;45916;52.734;6.544;2022-07-09T05:15:37;15.98;;;9.48;;
60038;SDS011;45916;52.734;6.544;2022-07-09T05:18:02;18.83;;;9.63;;
60038;SDS011;45916;52.734;6.544;2022-07-09T05:20:28;15.57;;;8.82;;
60038;SDS011;45916;52.734;6.544;2022-07-09T05:22:54;16.90;;;8.63;;
60038;SDS011;45916;52.734;6.544;2022-07-09T05:25:19;13.63;;;7.97;;
60038;SDS011;45916;52.734;6.544;2022-07-09T05:27:46;16.42;;;8.10;;
60038;SDS011;45916;52.734;6.544;2022-07-09T05:30:12;14.93;;;8.27;;
60038;SDS011;45916;52.734;6.544;2022-07-09T05:32:40;17.10;;;7.60;;
60038;SDS011;45916;52.734;6.544;2022-07-09T05:35:06;14.23;;;8.70;;
60038;SDS011;45916;52.734;6.544;2022-07-09T05:37:32;14.40;;;8.18;;
60038;SDS011;45916;52.734;6.544;2022-07-09T05:39:59;12.98;;;8.02;;
60038;SDS011;45916;52.734;6.544;2022-07-09T05:42:26;13.90;;;8.03;;
60038;SDS011;45916;52.734;6.544;2022-07-09T05:44:52;12.55;;;8.52;;
60038;SDS011;45916;52.734;6.544;2022-07-09T05:47:17;14.07;;;7.60;;
60038;SDS011;45916;52.734;6.544;2022-07-09T05:49:43;12.90;;;7.38;;
60038;SDS011;45916;52.734;6.544;2022-07-09T05:52:08;12.18;;;7.63;;
60038;SDS011;45916;52.734;6.544;2022-07-09T05:54:34;13.50;;;7.53;;
60038;SDS011;45916;52.734;6.544;2022-07-09T05:57:01;11.10;;;6.78;;
60038;SDS011;45916;52.734;6.544;2022-07-09T05:59:27;11.48;;;7.15;;
60038;SDS011;45916;52.734;6.544;2022-07-09T06:01:52;11.07;;;6.28;;
60038;SDS011;45916;52.734;6.544;2022-07-09T06:04:18;11.52;;;7.15;;
60038;SDS011;45916;52.734;6.544;2022-07-09T06:06:44;12.95;;;6.70;;
60038;SDS011;45916;52.734;6.544;2022-07-09T06:09:10;11.90;;;6.20;;
60038;SDS011;45916;52.734;6.544;2022-07-09T06:11:35;12.00;;;6.30;;
60038;SDS011;45916;52.734;6.544;2022-07-09T06:14:01;11.93;;;5.72;;
60038;SDS011;45916;52.734;6.544;2022-07-09T06:16:27;10.65;;;6.13;;
60038;SDS011;45916;52.734;6.544;2022-07-09T06:18:52;9.32;;;5.30;;
60038;SDS011;45916;52.734;6.544;2022-07-09T06:21:18;9.40;;;5.72;;
60038;SDS011;45916;52.734;6.544;2022-07-09T06:23:44;7.85;;;4.88;;
60038;SDS011;45916;52.734;6.544;2022-07-09T06:26:10;8.10;;;4.63;;
60038;SDS011;45916;52.734;6.544;2022-07-09T06:28:36;7.95;;;4.47;;
60038;SDS011;45916;52.734;6.544;2022-07-09T06:31:03;8.50;;;4.67;;
60038;SDS011;45916;52.734;6.544;2022-07-09T06:33:29;11.18;;;4.32;;
60038;SDS011;45916;52.734;6.544;2022-07-09T06:35:54;8.38;;;4.95;;
60038;SDS011;45916;52.734;6.544;2022-07-09T06:38:20;9.15;;;4.22;;
60038;SDS011;45916;52.734;6.544;2022-07-09T06:40:45;10.63;;;4.10;;
60038;SDS011;45916;52.734;6.544;2022-07-09T06:43:11;7.35;;;4.53;;
60038;SDS011;45916;52.734;6.544;2022-07-09T06:45:37;12.00;;;5.03;;
60038;SDS011;45916;52.734;6.544;2022-07-09T06:48:03;7.93;;;3.50;;
60038;SDS011;45916;52.734;6.544;2022-07-09T06:50:29;10.15;;;3.97;;
60038;SDS011;45916;52.734;6.544;2022-07-09T06:52:55;6.65;;;3.92;;
60038;SDS011;45916;52.734;6.544;2022-07-09T06:55:21;8.38;;;4.25;;
60038;SDS011;45916;52.734;6.544;2022-07-09T06:57:47;10.15;;;4.35;;
60038;SDS011;45916;52.734;6.544;2022-07-09T07:00:13;8.88;;;4.60;;
60038;SDS011;45916;52.734;6.544;2022-07-09T07:02:39;9.38;;;4.43;;
60038;SDS011;45916;52.734;6.544;2022-07-09T07:05:05;10.80;;;4.38;;
60038;SDS011;45916;52.734;6.544;2022-07-09T07:07:31;9.45;;;4.55;;
60038;SDS011;45916;52.734;6.544;2022-07-09T07:09:56;10.85;;;5.07;;
60038;SDS011;45916;52.734;6.544;2022-07-09T07:12:22;8.77;;;4.55;;
60038;SDS011;45916;52.734;6.544;2022-07-09T07:14:48;6.75;;;3.92;;
60038;SDS011;45916;52.734;6.544;2022-07-09T07:17:15;6.70;;;4.63;;
60038;SDS011;45916;52.734;6.544;2022-07-09T07:19:41;7.50;;;4.38;;
60038;SDS011;45916;52.734;6.544;2022-07-09T07:22:07;8.10;;;4.30;;
60038;SDS011;45916;52.734;6.544;2022-07-09T07:24:32;7.60;;;4.40;;
60038;SDS011;45916;52.734;6.544;2022-07-09T07:26:58;7.70;;;3.80;;
60038;SDS011;45916;52.734;6.544;2022-07-09T07:29:24;7.22;;;4.10;;
60038;SDS011;45916;52.734;6.544;2022-07-09T07:31:51;7.77;;;3.77;;
60038;SDS011;45916;52.734;6.544;2022-07-09T07:34:17;6.38;;;3.85;;
60038;SDS011;45916;52.734;6.544;2022-07-09T07:36:47;7.10;;;3.92;;
60038;SDS011;45916;52.734;6.544;2022-07-09T07:39:13;6.57;;;3.72;;
60038;SDS011;45916;52.734;6.544;2022-07-09T07:41:38;5.97;;;3.60;;
60038;SDS011;45916;52.734;6.544;2022-07-09T07:44:04;7.35;;;3.75;;
60038;SDS011;45916;52.734;6.544;2022-07-09T07:46:30;9.75;;;3.97;;
60038;SDS011;45916;52.734;6.544;2022-07-09T07:48:55;6.50;;;3.85;;
60038;SDS011;45916;52.734;6.544;2022-07-09T07:51:21;6.55;;;4.13;;
60038;SDS011;45916;52.734;6.544;2022-07-09T07:53:47;7.13;;;3.83;;
60038;SDS011;45916;52.734;6.544;2022-07-09T07:56:12;7.10;;;3.97;;
60038;SDS011;45916;52.734;6.544;2022-07-09T07:58:38;7.40;;;3.78;;
60038;SDS011;45916;52.734;6.544;2022-07-09T08:01:04;8.02;;;4.05;;
60038;SDS011;45916;52.734;6.544;2022-07-09T08:03:29;6.70;;;3.58;;
60038;SDS011;45916;52.734;6.544;2022-07-09T08:05:55;6.68;;;4.22;;
60038;SDS011;45916;52.734;6.544;2022-07-09T08:08:21;7.15;;;4.20;;
60038;SDS011;45916;52.734;6.544;2022-07-09T08:10:47;7.13;;;3.80;;
60038;SDS011;45916;52.734;6.544;2022-07-09T08:13:13;6.40;;;3.70;;
60038;SDS011;45916;52.734;6.544;2022-07-09T08:15:40;7.90;;;3.83;;
60038;SDS011;45916;52.734;6.544;2022-07-09T08:18:06;8.77;;;3.60;;
60038;SDS011;45916;52.734;6.544;2022-07-09T08:20:34;5.90;;;3.33;;
60038;SDS011;45916;52.734;6.544;2022-07-09T08:23:01;7.05;;;3.50;;
60038;SDS011;45916;52.734;6.544;2022-07-09T08:25:28;6.07;;;3.60;;
60038;SDS011;45916;52.734;6.544;2022-07-09T08:27:53;5.57;;;3.28;;
60038;SDS011;45916;52.734;6.544;2022-07-09T08:30:19;7.50;;;3.58;;
60038;SDS011;45916;52.734;6.544;2022-07-09T08:32:45;5.40;;;2.97;;
60038;SDS011;45916;52.734;6.544;2022-07-09T08:35:10;6.57;;;3.17;;
60038;SDS011;45916;52.734;6.544;2022-07-09T08:37:36;5.25;;;2.67;;
60038;SDS011;45916;52.734;6.544;2022-07-09T08:40:02;5.20;;;3.08;;
60038;SDS011;45916;52.734;6.544;2022-07-09T08:42:28;6.13;;;2.60;;
60038;SDS011;45916;52.734;6.544;2022-07-09T08:44:54;6.95;;;2.67;;
60038;SDS011;45916;52.734;6.544;2022-07-09T08:47:20;6.47;;;2.55;;
60038;SDS011;45916;52.734;6.544;2022-07-09T08:49:47;5.45;;;2.10;;
60038;SDS011;45916;52.734;6.544;2022-07-09T08:54:40;5.35;;;2.08;;
60038;SDS011;45916;52.734;6.544;2022-07-09T08:57:09;4.43;;;1.70;;
60038;SDS011;45916;52.734;6.544;2022-07-09T08:59:34;4.72;;;1.90;;
60038;SDS011;45916;52.734;6.544;2022-07-09T09:02:06;4.57;;;2.15;;
60038;SDS011;45916;52.734;6.544;2022-07-09T09:04:37;6.32;;;2.17;;
60038;SDS011;45916;52.734;6.544;2022-07-09T09:07:16;4.85;;;1.92;;
60038;SDS011;45916;52.734;6.544;2022-07-09T09:09:43;6.38;;;1.90;;
60038;SDS011;45916;52.734;6.544;2022-07-09T09:12:09;4.57;;;1.65;;
60038;SDS011;45916;52.734;6.544;2022-07-09T09:14:35;4.78;;;2.03;;
60038;SDS011;45916;52.734;6.544;2022-07-09T09:17:05;4.20;;;1.85;;
60038;SDS011;45916;52.734;6.544;2022-07-09T09:19:34;5.38;;;2.47;;
60038;SDS011;45916;52.734;6.544;2022-07-09T09:22:00;6.05;;;1.67;;
60038;SDS011;45916;52.734;6.544;2022-07-09T09:24:26;6.07;;;2.53;;
60038;SDS011;45916;52.734;6.544;2022-07-09T09:26:57;4.80;;;1.95;;
60038;SDS011;45916;52.734;6.544;2022-07-09T09:29:26;4.47;;;1.95;;
60038;SDS011;45916;52.734;6.544;2022-07-09T09:31:53;4.57;;;1.60;;
60038;SDS011;45916;52.734;6.544;2022-07-09T09:34:19;5.18;;;1.92;;
60038;SDS011;45916;52.734;6.544;2022-07-09T09:36:50;4.72;;;1.25;;
60038;SDS011;45916;52.734;6.544;2022-07-09T09:39:20;4.40;;;1.85;;
60038;SDS011;45916;52.734;6.544;2022-07-09T09:41:54;5.10;;;2.03;;
60038;SDS011;45916;52.734;6.544;2022-07-09T09:44:34;7.40;;;2.17;;
60038;SDS011;45916;52.734;6.544;2022-07-09T09:47:03;4.50;;;2.03;;
60038;SDS011;45916;52.734;6.544;2022-07-09T09:49:29;5.78;;;2.05;;
60038;SDS011;45916;52.734;6.544;2022-07-09T09:54:28;5.20;;;1.67;;
60038;SDS011;45916;52.734;6.544;2022-07-09T09:56:57;6.53;;;1.80;;
60038;SDS011;45916;52.734;6.544;2022-07-09T09:59:24;4.43;;;1.77;;
60038;SDS011;45916;52.734;6.544;2022-07-09T10:01:50;6.78;;;1.95;;
60038;SDS011;45916;52.734;6.544;2022-07-09T10:04:16;4.47;;;1.55;;
60038;SDS011;45916;52.734;6.544;2022-07-09T10:06:43;4.15;;;1.25;;
60038;SDS011;45916;52.734;6.544;2022-07-09T10:09:13;3.37;;;1.13;;
60038;SDS011;45916;52.734;6.544;2022-07-09T10:11:46;4.43;;;1.10;;
60038;SDS011;45916;52.734;6.544;2022-07-09T10:14:36;4.13;;;1.13;;
60038;SDS011;45916;52.734;6.544;2022-07-09T10:19:36;3.25;;;1.20;;
60038;SDS011;45916;52.734;6.544;2022-07-09T10:22:02;4.13;;;1.00;;
60038;SDS011;45916;52.734;6.544;2022-07-09T10:24:29;3.78;;;1.52;;
60038;SDS011;45916;52.734;6.544;2022-07-09T10:27:06;4.60;;;1.20;;
60038;SDS011;45916;52.734;6.544;2022-07-09T10:29:33;8.50;;;2.47;;
60038;SDS011;45916;52.734;6.544;2022-07-09T10:32:00;4.32;;;1.48;;
60038;SDS011;45916;52.734;6.544;2022-07-09T10:36:58;3.75;;;1.20;;
60038;SDS011;45916;52.734;6.544;2022-07-09T10:39:25;4.07;;;1.10;;
60038;SDS011;45916;52.734;6.544;2022-07-09T10:42:04;4.40;;;1.17;;
60038;SDS011;45916;52.734;6.544;2022-07-09T10:44:36;8.30;;;1.45;;
60038;SDS011;45916;52.734;6.544;2022-07-09T10:47:05;4.28;;;1.02;;
60038;SDS011;45916;52.734;6.544;2022-07-09T10:49:33;4.35;;;1.30;;
60038;SDS011;45916;52.734;6.544;2022-07-09T10:52:00;4.82;;;1.40;;
60038;SDS011;45916;52.734;6.544;2022-07-09T10:54:26;7.57;;;1.40;;
60038;SDS011;45916;52.734;6.544;2022-07-09T10:56:53;4.60;;;1.20;;
60038;SDS011;45916;52.734;6.544;2022-07-09T11:01:46;5.15;;;1.40;;
60038;SDS011;45916;52.734;6.544;2022-07-09T11:04:11;4.40;;;1.15;;
60038;SDS011;45916;52.734;6.544;2022-07-09T11:06:48;6.78;;;1.75;;
60038;SDS011;45916;52.734;6.544;2022-07-09T11:09:14;10.27;;;1.70;;
60038;SDS011;45916;52.734;6.544;2022-07-09T11:11:43;5.53;;;1.45;;
60038;SDS011;45916;52.734;6.544;2022-07-09T11:14:12;4.38;;;1.60;;
60038;SDS011;45916;52.734;6.544;2022-07-09T11:16:38;8.40;;;1.80;;
60038;SDS011;45916;52.734;6.544;2022-07-09T11:19:13;3.40;;;1.27;;
60038;SDS011;45916;52.734;6.544;2022-07-09T11:21:40;4.28;;;1.50;;
60038;SDS011;45916;52.734;6.544;2022-07-09T11:24:19;5.25;;;1.30;;
60038;SDS011;45916;52.734;6.544;2022-07-09T11:26:47;5.72;;;1.33;;
60038;SDS011;45916;52.734;6.544;2022-07-09T11:29:13;3.78;;;1.30;;
60038;SDS011;45916;52.734;6.544;2022-07-09T11:34:15;4.93;;;1.67;;
60038;SDS011;45916;52.734;6.544;2022-07-09T11:36:45;5.07;;;1.77;;
60038;SDS011;45916;52.734;6.544;2022-07-09T11:39:23;4.72;;;1.60;;
60038;SDS011;45916;52.734;6.544;2022-07-09T11:41:51;5.80;;;1.58;;
60038;SDS011;45916;52.734;6.544;2022-07-09T11:44:24;4.38;;;1.60;;
60038;SDS011;45916;52.734;6.544;2022-07-09T11:47:10;6.65;;;1.70;;
60038;SDS011;45916;52.734;6.544;2022-07-09T11:52:19;5.95;;;1.88;;
60038;SDS011;45916;52.734;6.544;2022-07-09T11:57:25;9.15;;;2.63;;
60038;SDS011;45916;52.734;6.544;2022-07-09T11:59:52;7.15;;;2.63;;
60038;SDS011;45916;52.734;6.544;2022-07-09T12:04:49;9.75;;;2.38;;
60038;SDS011;45916;52.734;6.544;2022-07-09T12:07:15;7.53;;;2.58;;
60038;SDS011;45916;52.734;6.544;2022-07-09T12:09:40;7.43;;;2.60;;
60038;SDS011;45916;52.734;6.544;2022-07-09T12:12:06;7.47;;;2.92;;
60038;SDS011;45916;52.734;6.544;2022-07-09T12:14:32;7.93;;;2.65;;
60038;SDS011;45916;52.734;6.544;2022-07-09T12:16:58;7.78;;;2.63;;
60038;SDS011;45916;52.734;6.544;2022-07-09T12:19:23;6.93;;;2.65;;
60038;SDS011;45916;52.734;6.544;2022-07-09T12:21:49;9.70;;;2.47;;
60038;SDS011;45916;52.734;6.544;2022-07-09T12:24:15;6.47;;;2.40;;
60038;SDS011;45916;52.734;6.544;2022-07-09T12:26:41;8.25;;;1.95;;
60038;SDS011;45916;52.734;6.544;2022-07-09T12:29:07;7.15;;;2.28;;
60038;SDS011;45916;52.734;6.544;2022-07-09T12:31:33;7.22;;;2.50;;
60038;SDS011;45916;52.734;6.544;2022-07-09T12:34:01;5.85;;;2.25;;
60038;SDS011;45916;52.734;6.544;2022-07-09T12:36:28;4.25;;;2.03;;
60038;SDS011;45916;52.734;6.544;2022-07-09T12:38:54;6.78;;;2.17;;
60038;SDS011;45916;52.734;6.544;2022-07-09T12:41:19;7.05;;;1.77;;
60038;SDS011;45916;52.734;6.544;2022-07-09T12:43:45;6.22;;;1.70;;
60038;SDS011;45916;52.734;6.544;2022-07-09T12:46:11;7.40;;;1.95;;
60038;SDS011;45916;52.734;6.544;2022-07-09T12:48:36;7.70;;;2.00;;
60038;SDS011;45916;52.734;6.544;2022-07-09T12:51:02;7.32;;;2.40;;
60038;SDS011;45916;52.734;6.544;2022-07-09T12:53:28;5.53;;;1.90;;
60038;SDS011;45916;52.734;6.544;2022-07-09T12:55:53;6.80;;;1.70;;
60038;SDS011;45916;52.734;6.544;2022-07-09T12:58:19;5.75;;;2.05;;
60038;SDS011;45916;52.734;6.544;2022-07-09T13:00:45;6.72;;;1.92;;
60038;SDS011;45916;52.734;6.544;2022-07-09T13:03:10;3.83;;;1.65;;
60038;SDS011;45916;52.734;6.544;2022-07-09T13:05:36;4.72;;;1.30;;
60038;SDS011;45916;52.734;6.544;2022-07-09T13:08:02;5.45;;;1.60;;
60038;SDS011;45916;52.734;6.544;2022-07-09T13:10:28;7.53;;;1.75;;
60038;SDS011;45916;52.734;6.544;2022-07-09T13:12:53;5.70;;;1.45;;
60038;SDS011;45916;52.734;6.544;2022-07-09T13:15:19;5.53;;;1.40;;
60038;SDS011;45916;52.734;6.544;2022-07-09T13:17:48;6.07;;;1.20;;
60038;SDS011;45916;52.734;6.544;2022-07-09T13:22:39;5.50;;;1.20;;
60038;SDS011;45916;52.734;6.544;2022-07-09T13:25:05;3.35;;;1.10;;
60038;SDS011;45916;52.734;6.544;2022-07-09T13:27:31;5.80;;;1.33;;
60038;SDS011;45916;52.734;6.544;2022-07-09T13:29:57;3.78;;;0.98;;
60038;SDS011;45916;52.734;6.544;2022-07-09T13:32:23;3.97;;;1.48;;
60038;SDS011;45916;52.734;6.544;2022-07-09T13:34:49;6.63;;;1.65;;
60038;SDS011;45916;52.734;6.544;2022-07-09T13:37:15;7.40;;;1.88;;
60038;SDS011;45916;52.734;6.544;2022-07-09T13:39:41;6.05;;;1.50;;
60038;SDS011;45916;52.734;6.544;2022-07-09T13:42:07;6.00;;;1.42;;
60038;SDS011;45916;52.734;6.544;2022-07-09T13:44:33;5.15;;;1.30;;
60038;SDS011;45916;52.734;6.544;2022-07-09T13:46:59;5.70;;;1.35;;
60038;SDS011;45916;52.734;6.544;2022-07-09T13:49:25;3.95;;;1.08;;
60038;SDS011;45916;52.734;6.544;2022-07-09T13:51:50;4.93;;;1.30;;
60038;SDS011;45916;52.734;6.544;2022-07-09T13:54:16;6.10;;;1.45;;
60038;SDS011;45916;52.734;6.544;2022-07-09T13:56:42;5.07;;;1.48;;
60038;SDS011;45916;52.734;6.544;2022-07-09T13:59:08;9.02;;;1.30;;
60038;SDS011;45916;52.734;6.544;2022-07-09T14:01:34;4.68;;;1.40;;
60038;SDS011;45916;52.734;6.544;2022-07-09T14:03:59;6.55;;;1.30;;
60038;SDS011;45916;52.734;6.544;2022-07-09T14:06:25;5.82;;;1.63;;
60038;SDS011;45916;52.734;6.544;2022-07-09T14:08:51;4.07;;;1.42;;
60038;SDS011;45916;52.734;6.544;2022-07-09T14:11:17;6.15;;;1.65;;
60038;SDS011;45916;52.734;6.544;2022-07-09T14:13:43;5.57;;;1.30;;
60038;SDS011;45916;52.734;6.544;2022-07-09T14:16:10;5.95;;;1.17;;
60038;SDS011;45916;52.734;6.544;2022-07-09T14:18:35;4.90;;;1.10;;
60038;SDS011;45916;52.734;6.544;2022-07-09T14:21:01;5.75;;;1.25;;
60038;SDS011;45916;52.734;6.544;2022-07-09T14:23:27;3.85;;;1.00;;
60038;SDS011;45916;52.734;6.544;2022-07-09T14:25:52;5.55;;;1.40;;
60038;SDS011;45916;52.734;6.544;2022-07-09T14:28:18;5.40;;;1.55;;
60038;SDS011;45916;52.734;6.544;2022-07-09T14:30:44;6.70;;;1.20;;
60038;SDS011;45916;52.734;6.544;2022-07-09T14:33:10;4.55;;;1.10;;
60038;SDS011;45916;52.734;6.544;2022-07-09T14:35:36;5.15;;;1.02;;
60038;SDS011;45916;52.734;6.544;2022-07-09T14:38:02;5.55;;;1.42;;
60038;SDS011;45916;52.734;6.544;2022-07-09T14:40:28;6.13;;;1.35;;
60038;SDS011;45916;52.734;6.544;2022-07-09T14:42:54;4.68;;;1.20;;
60038;SDS011;45916;52.734;6.544;2022-07-09T14:45:20;7.40;;;1.67;;
60038;SDS011;45916;52.734;6.544;2022-07-09T14:50:13;5.20;;;1.50;;
60038;SDS011;45916;52.734;6.544;2022-07-09T14:52:39;6.95;;;1.50;;
60038;SDS011;45916;52.734;6.544;2022-07-09T14:55:08;4.50;;;1.38;;
60038;SDS011;45916;52.734;6.544;2022-07-09T14:57:33;5.35;;;1.45;;
60038;SDS011;45916;52.734;6.544;2022-07-09T14:59:59;6.07;;;1.70;;
60038;SDS011;45916;52.734;6.544;2022-07-09T15:02:25;5.38;;;1.30;;